sensor_id;sensor_type;location;lat;lon;timestamp;P1;durP1;ratioP1;P2;durP2;ratioP2
22567;SDS011;11450;50.818;4.382;2022-10-16T00:01:51;3.65;;;1.00;;
22567;SDS011;11450;50.818;4.382;2022-10-16T00:04:16;2.40;;;0.80;;
22567;SDS011;11450;50.818;4.382;2022-10-16T00:06:42;2.38;;;0.60;;
22567;SDS011;11450;50.818;4.382;2022-10-16T00:09:08;0.68;;;0.68;;
22567;SDS011;11450;50.818;4.382;2022-10-16T00:11:35;2.03;;;1.33;;
22567;SDS011;11450;50.818;4.382;2022-10-16T00:14:02;1.15;;;0.80;;
22567;SDS011;11450;50.818;4.382;2022-10-16T00:16:30;0.90;;;0.90;;
22567;SDS011;11450;50.818;4.382;2022-10-16T00:18:57;0.75;;;0.43;;
22567;SDS011;11450;50.818;4.382;2022-10-16T00:21:24;1.63;;;0.90;;
22567;SDS011;11450;50.818;4.382;2022-10-16T00:23:55;1.88;;;0.65;;
22567;SDS011;11450;50.818;4.382;2022-10-16T00:26:27;1.25;;;0.88;;
22567;SDS011;11450;50.818;4.382;2022-10-16T00:28:57;1.23;;;0.80;;
22567;SDS011;11450;50.818;4.382;2022-10-16T00:31:24;1.52;;;0.80;;
22567;SDS011;11450;50.818;4.382;2022-10-16T00:33:55;1.15;;;0.80;;
22567;SDS011;11450;50.818;4.382;2022-10-16T00:36:22;2.28;;;0.80;;
22567;SDS011;11450;50.818;4.382;2022-10-16T00:38:55;2.65;;;0.77;;
22567;SDS011;11450;50.818;4.382;2022-10-16T00:41:22;1.25;;;0.98;;
22567;SDS011;11450;50.818;4.382;2022-10-16T00:43:50;2.40;;;1.13;;
22567;SDS011;11450;50.818;4.382;2022-10-16T00:46:28;0.95;;;0.70;;
22567;SDS011;11450;50.818;4.382;2022-10-16T00:49:06;1.08;;;0.77;;
22567;SDS011;11450;50.818;4.382;2022-10-16T00:54:09;1.33;;;0.90;;
22567;SDS011;11450;50.818;4.382;2022-10-16T00:56:38;3.63;;;1.05;;
22567;SDS011;11450;50.818;4.382;2022-10-16T00:59:04;2.05;;;1.10;;
22567;SDS011;11450;50.818;4.382;2022-10-16T01:01:35;0.90;;;0.90;;
22567;SDS011;11450;50.818;4.382;2022-10-16T01:04:01;1.48;;;1.05;;
22567;SDS011;11450;50.818;4.382;2022-10-16T01:11:56;5.50;;;1.50;;
22567;SDS011;11450;50.818;4.382;2022-10-16T01:14:40;3.72;;;0.95;;
22567;SDS011;11450;50.818;4.382;2022-10-16T01:22:37;2.13;;;0.90;;
22567;SDS011;11450;50.818;4.382;2022-10-16T01:25:11;2.13;;;0.90;;
22567;SDS011;11450;50.818;4.382;2022-10-16T01:27:44;0.88;;;0.77;;
22567;SDS011;11450;50.818;4.382;2022-10-16T01:30:13;4.65;;;1.45;;
22567;SDS011;11450;50.818;4.382;2022-10-16T01:32:49;1.43;;;1.20;;
22567;SDS011;11450;50.818;4.382;2022-10-16T01:35:23;2.92;;;1.10;;
22567;SDS011;11450;50.818;4.382;2022-10-16T01:40:51;3.35;;;1.00;;
22567;SDS011;11450;50.818;4.382;2022-10-16T01:43:31;3.35;;;1.15;;
22567;SDS011;11450;50.818;4.382;2022-10-16T01:46:01;3.47;;;0.88;;
22567;SDS011;11450;50.818;4.382;2022-10-16T01:48:27;3.38;;;1.08;;
22567;SDS011;11450;50.818;4.382;2022-10-16T01:51:11;1.80;;;1.00;;
22567;SDS011;11450;50.818;4.382;2022-10-16T01:53:39;2.13;;;1.20;;
22567;SDS011;11450;50.818;4.382;2022-10-16T01:56:18;3.22;;;0.90;;
22567;SDS011;11450;50.818;4.382;2022-10-16T01:58:49;3.35;;;1.10;;
22567;SDS011;11450;50.818;4.382;2022-10-16T02:01:19;3.05;;;1.08;;
22567;SDS011;11450;50.818;4.382;2022-10-16T02:03:48;2.25;;;1.10;;
22567;SDS011;11450;50.818;4.382;2022-10-16T02:06:17;1.17;;;1.08;;
22567;SDS011;11450;50.818;4.382;2022-10-16T02:08:43;3.85;;;1.17;;
22567;SDS011;11450;50.818;4.382;2022-10-16T02:11:09;2.03;;;1.20;;
22567;SDS011;11450;50.818;4.382;2022-10-16T02:16:01;2.45;;;1.20;;
22567;SDS011;11450;50.818;4.382;2022-10-16T02:18:27;2.75;;;1.25;;
22567;SDS011;11450;50.818;4.382;2022-10-16T02:21:07;2.28;;;1.20;;
22567;SDS011;11450;50.818;4.382;2022-10-16T02:23:58;2.22;;;1.30;;
22567;SDS011;11450;50.818;4.382;2022-10-16T02:27:03;2.90;;;1.30;;
22567;SDS011;11450;50.818;4.382;2022-10-16T02:29:34;6.53;;;1.35;;
22567;SDS011;11450;50.818;4.382;2022-10-16T02:32:09;4.72;;;1.25;;
22567;SDS011;11450;50.818;4.382;2022-10-16T02:34:37;4.78;;;1.60;;
22567;SDS011;11450;50.818;4.382;2022-10-16T02:37:04;1.90;;;1.05;;
22567;SDS011;11450;50.818;4.382;2022-10-16T02:39:31;2.55;;;1.35;;
22567;SDS011;11450;50.818;4.382;2022-10-16T02:41:58;2.03;;;1.08;;
22567;SDS011;11450;50.818;4.382;2022-10-16T02:44:23;2.45;;;1.40;;
22567;SDS011;11450;50.818;4.382;2022-10-16T02:46:49;4.93;;;1.30;;
22567;SDS011;11450;50.818;4.382;2022-10-16T02:49:15;2.28;;;1.65;;
22567;SDS011;11450;50.818;4.382;2022-10-16T02:51:40;2.38;;;1.30;;
22567;SDS011;11450;50.818;4.382;2022-10-16T02:54:06;5.40;;;1.33;;
22567;SDS011;11450;50.818;4.382;2022-10-16T02:56:31;2.58;;;1.42;;
22567;SDS011;11450;50.818;4.382;2022-10-16T02:58:58;3.35;;;1.25;;
22567;SDS011;11450;50.818;4.382;2022-10-16T03:01:24;3.30;;;1.48;;
22567;SDS011;11450;50.818;4.382;2022-10-16T03:03:50;6.60;;;1.75;;
22567;SDS011;11450;50.818;4.382;2022-10-16T03:06:15;2.30;;;1.52;;
22567;SDS011;11450;50.818;4.382;2022-10-16T03:08:41;2.33;;;1.23;;
22567;SDS011;11450;50.818;4.382;2022-10-16T03:11:07;3.50;;;2.05;;
22567;SDS011;11450;50.818;4.382;2022-10-16T03:13:32;3.10;;;1.40;;
22567;SDS011;11450;50.818;4.382;2022-10-16T03:15:58;2.72;;;1.48;;
22567;SDS011;11450;50.818;4.382;2022-10-16T03:18:24;12.27;;;2.00;;
22567;SDS011;11450;50.818;4.382;2022-10-16T03:20:49;3.58;;;1.70;;
22567;SDS011;11450;50.818;4.382;2022-10-16T03:23:15;5.18;;;1.60;;
22567;SDS011;11450;50.818;4.382;2022-10-16T03:25:41;1.27;;;1.17;;
22567;SDS011;11450;50.818;4.382;2022-10-16T03:28:06;3.05;;;1.48;;
22567;SDS011;11450;50.818;4.382;2022-10-16T03:30:32;4.22;;;1.45;;
22567;SDS011;11450;50.818;4.382;2022-10-16T03:32:58;1.92;;;1.25;;
22567;SDS011;11450;50.818;4.382;2022-10-16T03:35:24;3.05;;;1.45;;
22567;SDS011;11450;50.818;4.382;2022-10-16T03:37:50;5.47;;;1.58;;
22567;SDS011;11450;50.818;4.382;2022-10-16T03:40:15;5.53;;;1.42;;
22567;SDS011;11450;50.818;4.382;2022-10-16T03:42:42;3.58;;;1.70;;
22567;SDS011;11450;50.818;4.382;2022-10-16T03:45:08;2.33;;;1.50;;
22567;SDS011;11450;50.818;4.382;2022-10-16T03:47:35;2.10;;;1.30;;
22567;SDS011;11450;50.818;4.382;2022-10-16T03:50:01;2.45;;;1.45;;
22567;SDS011;11450;50.818;4.382;2022-10-16T03:52:27;3.67;;;1.73;;
22567;SDS011;11450;50.818;4.382;2022-10-16T03:54:52;6.15;;;1.70;;
22567;SDS011;11450;50.818;4.382;2022-10-16T03:57:18;4.22;;;1.75;;
22567;SDS011;11450;50.818;4.382;2022-10-16T03:59:45;3.35;;;1.63;;
22567;SDS011;11450;50.818;4.382;2022-10-16T04:02:11;3.30;;;1.70;;
22567;SDS011;11450;50.818;4.382;2022-10-16T04:04:37;3.95;;;1.83;;
22567;SDS011;11450;50.818;4.382;2022-10-16T04:07:02;3.53;;;1.55;;
22567;SDS011;11450;50.818;4.382;2022-10-16T04:09:28;2.30;;;2.00;;
22567;SDS011;11450;50.818;4.382;2022-10-16T04:11:54;3.53;;;1.58;;
22567;SDS011;11450;50.818;4.382;2022-10-16T04:14:19;6.50;;;1.70;;
22567;SDS011;11450;50.818;4.382;2022-10-16T04:16:45;3.58;;;1.65;;
22567;SDS011;11450;50.818;4.382;2022-10-16T04:19:11;4.07;;;1.60;;
22567;SDS011;11450;50.818;4.382;2022-10-16T04:21:36;2.83;;;1.42;;
22567;SDS011;11450;50.818;4.382;2022-10-16T04:24:02;2.00;;;1.55;;
22567;SDS011;11450;50.818;4.382;2022-10-16T04:26:34;6.80;;;2.38;;
22567;SDS011;11450;50.818;4.382;2022-10-16T04:28:59;3.03;;;2.17;;
22567;SDS011;11450;50.818;4.382;2022-10-16T04:31:25;2.88;;;1.67;;
22567;SDS011;11450;50.818;4.382;2022-10-16T04:33:50;3.08;;;1.60;;
22567;SDS011;11450;50.818;4.382;2022-10-16T04:36:16;2.80;;;1.35;;
22567;SDS011;11450;50.818;4.382;2022-10-16T04:38:42;1.55;;;1.02;;
22567;SDS011;11450;50.818;4.382;2022-10-16T04:41:07;6.05;;;1.40;;
22567;SDS011;11450;50.818;4.382;2022-10-16T04:43:33;3.53;;;1.50;;
22567;SDS011;11450;50.818;4.382;2022-10-16T04:45:59;3.13;;;1.50;;
22567;SDS011;11450;50.818;4.382;2022-10-16T04:48:25;5.07;;;1.40;;
22567;SDS011;11450;50.818;4.382;2022-10-16T04:50:51;1.98;;;1.38;;
22567;SDS011;11450;50.818;4.382;2022-10-16T04:53:17;3.47;;;1.67;;
22567;SDS011;11450;50.818;4.382;2022-10-16T04:55:42;4.00;;;1.63;;
22567;SDS011;11450;50.818;4.382;2022-10-16T04:58:08;2.70;;;1.42;;
22567;SDS011;11450;50.818;4.382;2022-10-16T05:00:34;5.05;;;1.55;;
22567;SDS011;11450;50.818;4.382;2022-10-16T05:03:00;2.08;;;1.48;;
22567;SDS011;11450;50.818;4.382;2022-10-16T05:05:26;4.40;;;1.40;;
22567;SDS011;11450;50.818;4.382;2022-10-16T05:07:53;3.75;;;1.70;;
22567;SDS011;11450;50.818;4.382;2022-10-16T05:10:19;3.08;;;1.67;;
22567;SDS011;11450;50.818;4.382;2022-10-16T05:12:44;4.15;;;1.70;;
22567;SDS011;11450;50.818;4.382;2022-10-16T05:15:10;1.60;;;1.50;;
22567;SDS011;11450;50.818;4.382;2022-10-16T05:17:36;3.10;;;2.03;;
22567;SDS011;11450;50.818;4.382;2022-10-16T05:20:02;5.95;;;1.88;;
22567;SDS011;11450;50.818;4.382;2022-10-16T05:22:28;4.32;;;1.70;;
22567;SDS011;11450;50.818;4.382;2022-10-16T05:24:54;4.75;;;2.03;;
22567;SDS011;11450;50.818;4.382;2022-10-16T05:27:19;4.88;;;1.75;;
22567;SDS011;11450;50.818;4.382;2022-10-16T05:29:46;3.45;;;1.85;;
22567;SDS011;11450;50.818;4.382;2022-10-16T05:32:13;2.28;;;1.70;;
22567;SDS011;11450;50.818;4.382;2022-10-16T05:34:40;5.30;;;1.90;;
22567;SDS011;11450;50.818;4.382;2022-10-16T05:37:05;4.30;;;1.80;;
22567;SDS011;11450;50.818;4.382;2022-10-16T05:39:31;6.03;;;1.88;;
22567;SDS011;11450;50.818;4.382;2022-10-16T05:41:57;3.47;;;1.98;;
22567;SDS011;11450;50.818;4.382;2022-10-16T05:44:22;3.38;;;1.60;;
22567;SDS011;11450;50.818;4.382;2022-10-16T05:46:48;4.68;;;1.95;;
22567;SDS011;11450;50.818;4.382;2022-10-16T05:49:14;3.05;;;1.80;;
22567;SDS011;11450;50.818;4.382;2022-10-16T05:51:40;4.05;;;1.58;;
22567;SDS011;11450;50.818;4.382;2022-10-16T05:54:06;4.75;;;1.88;;
22567;SDS011;11450;50.818;4.382;2022-10-16T05:56:32;3.85;;;1.70;;
22567;SDS011;11450;50.818;4.382;2022-10-16T05:58:58;3.13;;;2.03;;
22567;SDS011;11450;50.818;4.382;2022-10-16T06:01:23;4.50;;;1.70;;
22567;SDS011;11450;50.818;4.382;2022-10-16T06:03:52;5.30;;;1.98;;
22567;SDS011;11450;50.818;4.382;2022-10-16T06:06:20;5.47;;;1.60;;
22567;SDS011;11450;50.818;4.382;2022-10-16T06:08:47;3.38;;;1.75;;
22567;SDS011;11450;50.818;4.382;2022-10-16T06:11:18;4.93;;;1.63;;
22567;SDS011;11450;50.818;4.382;2022-10-16T06:13:51;19.35;;;2.50;;
22567;SDS011;11450;50.818;4.382;2022-10-16T06:16:17;2.45;;;1.60;;
22567;SDS011;11450;50.818;4.382;2022-10-16T06:18:43;6.57;;;1.63;;
22567;SDS011;11450;50.818;4.382;2022-10-16T06:21:11;4.10;;;1.67;;
22567;SDS011;11450;50.818;4.382;2022-10-16T06:23:39;2.67;;;1.52;;
22567;SDS011;11450;50.818;4.382;2022-10-16T06:26:05;3.33;;;1.50;;
22567;SDS011;11450;50.818;4.382;2022-10-16T06:28:32;5.47;;;1.52;;
22567;SDS011;11450;50.818;4.382;2022-10-16T06:31:01;6.18;;;1.70;;
22567;SDS011;11450;50.818;4.382;2022-10-16T06:33:28;4.65;;;1.65;;
22567;SDS011;11450;50.818;4.382;2022-10-16T06:35:59;4.72;;;1.70;;
22567;SDS011;11450;50.818;4.382;2022-10-16T06:38:28;4.25;;;1.73;;
22567;SDS011;11450;50.818;4.382;2022-10-16T06:40:54;3.33;;;1.42;;
22567;SDS011;11450;50.818;4.382;2022-10-16T06:43:20;3.60;;;1.52;;
22567;SDS011;11450;50.818;4.382;2022-10-16T06:45:56;3.30;;;1.73;;
22567;SDS011;11450;50.818;4.382;2022-10-16T06:48:23;2.80;;;1.70;;
22567;SDS011;11450;50.818;4.382;2022-10-16T06:51:05;3.95;;;1.80;;
22567;SDS011;11450;50.818;4.382;2022-10-16T06:53:33;2.67;;;1.45;;
22567;SDS011;11450;50.818;4.382;2022-10-16T06:56:17;5.00;;;1.80;;
22567;SDS011;11450;50.818;4.382;2022-10-16T06:58:46;2.30;;;1.43;;
22567;SDS011;11450;50.818;4.382;2022-10-16T07:01:11;2.70;;;1.50;;
22567;SDS011;11450;50.818;4.382;2022-10-16T07:03:39;4.05;;;1.55;;
22567;SDS011;11450;50.818;4.382;2022-10-16T07:06:06;3.90;;;1.85;;
22567;SDS011;11450;50.818;4.382;2022-10-16T07:08:34;2.58;;;1.60;;
22567;SDS011;11450;50.818;4.382;2022-10-16T07:11:04;3.13;;;2.05;;
22567;SDS011;11450;50.818;4.382;2022-10-16T07:13:39;3.63;;;1.20;;
22567;SDS011;11450;50.818;4.382;2022-10-16T07:18:39;4.60;;;1.33;;
22567;SDS011;11450;50.818;4.382;2022-10-16T07:21:12;6.22;;;1.83;;
22567;SDS011;11450;50.818;4.382;2022-10-16T07:23:40;5.88;;;1.73;;
22567;SDS011;11450;50.818;4.382;2022-10-16T07:26:06;6.60;;;1.73;;
22567;SDS011;11450;50.818;4.382;2022-10-16T07:28:34;3.92;;;1.90;;
22567;SDS011;11450;50.818;4.382;2022-10-16T07:31:04;5.00;;;1.52;;
22567;SDS011;11450;50.818;4.382;2022-10-16T07:33:32;3.35;;;1.70;;
22567;SDS011;11450;50.818;4.382;2022-10-16T07:35:58;2.88;;;1.48;;
22567;SDS011;11450;50.818;4.382;2022-10-16T07:38:24;2.58;;;1.27;;
22567;SDS011;11450;50.818;4.382;2022-10-16T07:40:57;5.20;;;1.63;;
22567;SDS011;11450;50.818;4.382;2022-10-16T07:43:35;3.05;;;1.63;;
22567;SDS011;11450;50.818;4.382;2022-10-16T07:46:02;4.20;;;1.55;;
22567;SDS011;11450;50.818;4.382;2022-10-16T07:48:28;2.83;;;1.70;;
22567;SDS011;11450;50.818;4.382;2022-10-16T07:50:57;5.78;;;1.65;;
22567;SDS011;11450;50.818;4.382;2022-10-16T07:53:27;4.03;;;1.88;;
22567;SDS011;11450;50.818;4.382;2022-10-16T07:55:59;4.13;;;1.52;;
22567;SDS011;11450;50.818;4.382;2022-10-16T07:58:26;4.13;;;1.70;;
22567;SDS011;11450;50.818;4.382;2022-10-16T08:00:52;6.63;;;1.85;;
22567;SDS011;11450;50.818;4.382;2022-10-16T08:03:19;4.40;;;1.98;;
22567;SDS011;11450;50.818;4.382;2022-10-16T08:05:45;3.00;;;1.73;;
22567;SDS011;11450;50.818;4.382;2022-10-16T08:08:14;3.13;;;1.75;;
22567;SDS011;11450;50.818;4.382;2022-10-16T08:10:44;5.80;;;2.20;;
22567;SDS011;11450;50.818;4.382;2022-10-16T08:13:15;2.72;;;1.90;;
22567;SDS011;11450;50.818;4.382;2022-10-16T08:15:46;4.38;;;1.85;;
22567;SDS011;11450;50.818;4.382;2022-10-16T08:18:13;3.80;;;1.45;;
22567;SDS011;11450;50.818;4.382;2022-10-16T08:20:40;5.18;;;1.75;;
22567;SDS011;11450;50.818;4.382;2022-10-16T08:23:09;4.35;;;1.50;;
22567;SDS011;11450;50.818;4.382;2022-10-16T08:25:40;2.55;;;1.50;;
22567;SDS011;11450;50.818;4.382;2022-10-16T08:28:07;4.63;;;1.70;;
22567;SDS011;11450;50.818;4.382;2022-10-16T08:30:34;5.45;;;1.85;;
22567;SDS011;11450;50.818;4.382;2022-10-16T08:33:02;7.68;;;1.70;;
22567;SDS011;11450;50.818;4.382;2022-10-16T08:35:33;2.90;;;1.63;;
22567;SDS011;11450;50.818;4.382;2022-10-16T08:37:59;2.67;;;1.30;;
22567;SDS011;11450;50.818;4.382;2022-10-16T08:40:25;3.35;;;1.40;;
22567;SDS011;11450;50.818;4.382;2022-10-16T08:43:06;7.40;;;1.67;;
22567;SDS011;11450;50.818;4.382;2022-10-16T08:50:55;4.32;;;1.60;;
22567;SDS011;11450;50.818;4.382;2022-10-16T08:53:23;6.10;;;2.10;;
22567;SDS011;11450;50.818;4.382;2022-10-16T08:55:58;4.10;;;1.58;;
22567;SDS011;11450;50.818;4.382;2022-10-16T08:58:27;5.32;;;1.40;;
22567;SDS011;11450;50.818;4.382;2022-10-16T09:00:55;4.40;;;1.50;;
22567;SDS011;11450;50.818;4.382;2022-10-16T09:06:48;6.82;;;1.80;;
22567;SDS011;11450;50.818;4.382;2022-10-16T09:17:35;3.58;;;1.33;;
22567;SDS011;11450;50.818;4.382;2022-10-16T09:25:38;4.53;;;1.23;;
22567;SDS011;11450;50.818;4.382;2022-10-16T09:28:09;4.10;;;1.20;;
22567;SDS011;11450;50.818;4.382;2022-10-16T09:30:35;3.55;;;1.20;;
22567;SDS011;11450;50.818;4.382;2022-10-16T09:35:45;5.25;;;1.40;;
22567;SDS011;11450;50.818;4.382;2022-10-16T09:38:22;4.93;;;1.30;;
22567;SDS011;11450;50.818;4.382;2022-10-16T09:40:53;4.53;;;1.48;;
22567;SDS011;11450;50.818;4.382;2022-10-16T09:46:26;4.93;;;1.35;;
22567;SDS011;11450;50.818;4.382;2022-10-16T09:48:57;2.45;;;1.15;;
22567;SDS011;11450;50.818;4.382;2022-10-16T09:54:01;3.55;;;1.40;;
22567;SDS011;11450;50.818;4.382;2022-10-16T09:56:34;3.42;;;1.33;;
22567;SDS011;11450;50.818;4.382;2022-10-16T09:59:22;3.85;;;1.50;;
22567;SDS011;11450;50.818;4.382;2022-10-16T10:01:53;4.35;;;1.10;;
22567;SDS011;11450;50.818;4.382;2022-10-16T10:04:21;5.45;;;1.63;;
22567;SDS011;11450;50.818;4.382;2022-10-16T10:06:49;6.35;;;1.20;;
22567;SDS011;11450;50.818;4.382;2022-10-16T10:11:58;5.07;;;1.30;;
22567;SDS011;11450;50.818;4.382;2022-10-16T10:14:38;4.20;;;1.38;;
22567;SDS011;11450;50.818;4.382;2022-10-16T10:17:16;3.03;;;1.35;;
22567;SDS011;11450;50.818;4.382;2022-10-16T10:19:55;2.22;;;1.00;;
22567;SDS011;11450;50.818;4.382;2022-10-16T10:27:55;4.13;;;1.40;;
22567;SDS011;11450;50.818;4.382;2022-10-16T10:33:12;5.50;;;1.10;;
22567;SDS011;11450;50.818;4.382;2022-10-16T10:46:31;7.65;;;1.83;;
22567;SDS011;11450;50.818;4.382;2022-10-16T10:51:58;5.13;;;1.00;;
22567;SDS011;11450;50.818;4.382;2022-10-16T10:54:31;4.17;;;1.30;;
22567;SDS011;11450;50.818;4.382;2022-10-16T11:02:47;3.53;;;1.02;;
22567;SDS011;11450;50.818;4.382;2022-10-16T11:08:02;3.27;;;1.27;;
22567;SDS011;11450;50.818;4.382;2022-10-16T11:10:50;4.93;;;1.15;;
22567;SDS011;11450;50.818;4.382;2022-10-16T11:13:40;5.03;;;1.15;;
22567;SDS011;11450;50.818;4.382;2022-10-16T11:16:17;6.53;;;1.40;;
22567;SDS011;11450;50.818;4.382;2022-10-16T11:18:59;5.13;;;1.48;;
22567;SDS011;11450;50.818;4.382;2022-10-16T11:21:37;3.72;;;1.10;;
22567;SDS011;11450;50.818;4.382;2022-10-16T11:24:20;1.67;;;0.85;;
22567;SDS011;11450;50.818;4.382;2022-10-16T11:26:50;3.15;;;1.10;;
22567;SDS011;11450;50.818;4.382;2022-10-16T11:29:23;2.67;;;1.08;;
22567;SDS011;11450;50.818;4.382;2022-10-16T11:31:57;2.13;;;0.87;;
22567;SDS011;11450;50.818;4.382;2022-10-16T11:34:38;1.30;;;0.60;;
22567;SDS011;11450;50.818;4.382;2022-10-16T11:37:17;3.70;;;1.10;;
22567;SDS011;11450;50.818;4.382;2022-10-16T11:39:45;7.63;;;1.50;;
22567;SDS011;11450;50.818;4.382;2022-10-16T11:42:22;4.72;;;1.02;;
22567;SDS011;11450;50.818;4.382;2022-10-16T11:45:31;2.33;;;1.13;;
22567;SDS011;11450;50.818;4.382;2022-10-16T11:48:01;3.58;;;0.73;;
22567;SDS011;11450;50.818;4.382;2022-10-16T11:50:43;3.00;;;0.90;;
22567;SDS011;11450;50.818;4.382;2022-10-16T11:56:23;2.63;;;1.02;;
22567;SDS011;11450;50.818;4.382;2022-10-16T11:59:00;3.25;;;1.00;;
22567;SDS011;11450;50.818;4.382;2022-10-16T12:01:31;3.10;;;1.10;;
22567;SDS011;11450;50.818;4.382;2022-10-16T12:04:36;4.30;;;1.10;;
22567;SDS011;11450;50.818;4.382;2022-10-16T12:07:18;4.10;;;1.00;;
22567;SDS011;11450;50.818;4.382;2022-10-16T12:09:49;5.45;;;0.80;;
22567;SDS011;11450;50.818;4.382;2022-10-16T12:12:28;3.78;;;1.52;;
22567;SDS011;11450;50.818;4.382;2022-10-16T12:15:23;3.08;;;0.90;;
22567;SDS011;11450;50.818;4.382;2022-10-16T12:17:53;2.63;;;0.80;;
22567;SDS011;11450;50.818;4.382;2022-10-16T12:22:56;2.50;;;0.60;;
22567;SDS011;11450;50.818;4.382;2022-10-16T12:25:33;1.75;;;0.73;;
22567;SDS011;11450;50.818;4.382;2022-10-16T12:30:57;3.05;;;1.40;;
22567;SDS011;11450;50.818;4.382;2022-10-16T12:33:34;5.95;;;1.30;;
22567;SDS011;11450;50.818;4.382;2022-10-16T12:36:13;2.90;;;0.95;;
22567;SDS011;11450;50.818;4.382;2022-10-16T12:38:52;2.15;;;0.68;;
22567;SDS011;11450;50.818;4.382;2022-10-16T12:41:32;2.50;;;0.82;;
22567;SDS011;11450;50.818;4.382;2022-10-16T12:44:00;5.20;;;0.93;;
22567;SDS011;11450;50.818;4.382;2022-10-16T12:51:39;2.63;;;0.77;;
22567;SDS011;11450;50.818;4.382;2022-10-16T12:54:13;3.97;;;1.00;;
22567;SDS011;11450;50.818;4.382;2022-10-16T13:07:40;2.05;;;0.85;;
22567;SDS011;11450;50.818;4.382;2022-10-16T13:10:20;5.75;;;1.98;;
22567;SDS011;11450;50.818;4.382;2022-10-16T13:27:07;1.92;;;0.90;;
22567;SDS011;11450;50.818;4.382;2022-10-16T13:29:36;4.35;;;1.17;;
22567;SDS011;11450;50.818;4.382;2022-10-16T13:32:09;4.03;;;1.23;;
22567;SDS011;11450;50.818;4.382;2022-10-16T13:34:45;6.75;;;1.15;;
22567;SDS011;11450;50.818;4.382;2022-10-16T13:37:22;3.05;;;1.95;;
22567;SDS011;11450;50.818;4.382;2022-10-16T13:39:50;3.75;;;1.15;;
22567;SDS011;11450;50.818;4.382;2022-10-16T13:42:27;6.05;;;1.08;;
22567;SDS011;11450;50.818;4.382;2022-10-16T13:45:17;4.97;;;1.20;;
22567;SDS011;11450;50.818;4.382;2022-10-16T13:47:46;5.32;;;1.17;;
22567;SDS011;11450;50.818;4.382;2022-10-16T13:50:13;4.63;;;1.35;;
22567;SDS011;11450;50.818;4.382;2022-10-16T13:52:40;4.05;;;1.00;;
22567;SDS011;11450;50.818;4.382;2022-10-16T13:55:10;5.25;;;1.67;;
22567;SDS011;11450;50.818;4.382;2022-10-16T13:57:39;3.60;;;1.17;;
22567;SDS011;11450;50.818;4.382;2022-10-16T14:00:22;2.40;;;1.30;;
22567;SDS011;11450;50.818;4.382;2022-10-16T14:02:55;1.83;;;0.85;;
22567;SDS011;11450;50.818;4.382;2022-10-16T14:05:25;3.97;;;1.05;;
22567;SDS011;11450;50.818;4.382;2022-10-16T14:07:51;2.88;;;1.00;;
22567;SDS011;11450;50.818;4.382;2022-10-16T14:10:29;2.00;;;1.30;;
22567;SDS011;11450;50.818;4.382;2022-10-16T14:13:01;3.17;;;1.00;;
22567;SDS011;11450;50.818;4.382;2022-10-16T14:15:31;2.75;;;1.10;;
22567;SDS011;11450;50.818;4.382;2022-10-16T14:17:58;1.35;;;0.73;;
22567;SDS011;11450;50.818;4.382;2022-10-16T14:20:26;5.85;;;1.13;;
22567;SDS011;11450;50.818;4.382;2022-10-16T14:23:18;1.75;;;0.90;;
22567;SDS011;11450;50.818;4.382;2022-10-16T14:26:07;3.08;;;0.80;;
22567;SDS011;11450;50.818;4.382;2022-10-16T14:28:38;3.58;;;1.20;;
22567;SDS011;11450;50.818;4.382;2022-10-16T14:33:51;3.95;;;1.02;;
22567;SDS011;11450;50.818;4.382;2022-10-16T14:36:17;3.63;;;1.00;;
22567;SDS011;11450;50.818;4.382;2022-10-16T14:38:59;2.90;;;0.80;;
22567;SDS011;11450;50.818;4.382;2022-10-16T14:41:31;7.03;;;1.35;;
22567;SDS011;11450;50.818;4.382;2022-10-16T14:44:05;5.32;;;2.03;;
22567;SDS011;11450;50.818;4.382;2022-10-16T14:46:33;4.90;;;1.52;;
22567;SDS011;11450;50.818;4.382;2022-10-16T14:51:36;6.10;;;1.23;;
22567;SDS011;11450;50.818;4.382;2022-10-16T14:54:03;4.10;;;1.75;;
22567;SDS011;11450;50.818;4.382;2022-10-16T14:56:30;5.45;;;1.48;;
22567;SDS011;11450;50.818;4.382;2022-10-16T14:59:00;2.22;;;0.90;;
22567;SDS011;11450;50.818;4.382;2022-10-16T15:01:27;3.47;;;0.90;;
22567;SDS011;11450;50.818;4.382;2022-10-16T15:03:52;1.98;;;1.20;;
22567;SDS011;11450;50.818;4.382;2022-10-16T15:06:19;4.63;;;1.23;;
22567;SDS011;11450;50.818;4.382;2022-10-16T15:08:45;7.25;;;1.55;;
22567;SDS011;11450;50.818;4.382;2022-10-16T15:11:12;3.47;;;1.02;;
22567;SDS011;11450;50.818;4.382;2022-10-16T15:13:40;7.88;;;3.78;;
22567;SDS011;11450;50.818;4.382;2022-10-16T15:16:11;4.53;;;1.63;;
22567;SDS011;11450;50.818;4.382;2022-10-16T15:18:38;4.70;;;1.70;;
22567;SDS011;11450;50.818;4.382;2022-10-16T15:21:04;5.38;;;1.75;;
22567;SDS011;11450;50.818;4.382;2022-10-16T15:23:30;3.33;;;1.48;;
22567;SDS011;11450;50.818;4.382;2022-10-16T15:25:56;6.32;;;1.98;;
22567;SDS011;11450;50.818;4.382;2022-10-16T15:28:27;3.28;;;1.80;;
22567;SDS011;11450;50.818;4.382;2022-10-16T15:30:54;4.93;;;1.95;;
22567;SDS011;11450;50.818;4.382;2022-10-16T15:33:22;2.50;;;1.65;;
22567;SDS011;11450;50.818;4.382;2022-10-16T15:35:52;2.58;;;1.50;;
22567;SDS011;11450;50.818;4.382;2022-10-16T15:38:19;3.92;;;1.58;;
22567;SDS011;11450;50.818;4.382;2022-10-16T15:40:46;10.70;;;2.40;;
22567;SDS011;11450;50.818;4.382;2022-10-16T15:43:14;4.07;;;1.80;;
22567;SDS011;11450;50.818;4.382;2022-10-16T15:45:40;5.30;;;1.85;;
22567;SDS011;11450;50.818;4.382;2022-10-16T15:48:09;6.95;;;1.88;;
22567;SDS011;11450;50.818;4.382;2022-10-16T15:50:36;5.10;;;1.60;;
22567;SDS011;11450;50.818;4.382;2022-10-16T15:53:03;2.58;;;1.67;;
22567;SDS011;11450;50.818;4.382;2022-10-16T15:55:35;4.93;;;2.08;;
22567;SDS011;11450;50.818;4.382;2022-10-16T15:58:03;4.05;;;1.60;;
22567;SDS011;11450;50.818;4.382;2022-10-16T16:00:29;3.05;;;1.70;;
22567;SDS011;11450;50.818;4.382;2022-10-16T16:02:55;3.83;;;1.90;;
22567;SDS011;11450;50.818;4.382;2022-10-16T16:05:21;3.60;;;2.20;;
22567;SDS011;11450;50.818;4.382;2022-10-16T16:07:47;2.33;;;1.50;;
22567;SDS011;11450;50.818;4.382;2022-10-16T16:10:14;4.75;;;1.88;;
22567;SDS011;11450;50.818;4.382;2022-10-16T16:12:40;12.40;;;2.50;;
22567;SDS011;11450;50.818;4.382;2022-10-16T16:15:24;6.85;;;2.28;;
22567;SDS011;11450;50.818;4.382;2022-10-16T16:17:51;7.63;;;2.40;;
22567;SDS011;11450;50.818;4.382;2022-10-16T16:20:20;4.28;;;2.40;;
22567;SDS011;11450;50.818;4.382;2022-10-16T16:22:46;2.83;;;1.88;;
22567;SDS011;11450;50.818;4.382;2022-10-16T16:25:11;4.72;;;2.20;;
22567;SDS011;11450;50.818;4.382;2022-10-16T16:27:37;4.78;;;2.63;;
22567;SDS011;11450;50.818;4.382;2022-10-16T16:30:04;5.65;;;2.33;;
22567;SDS011;11450;50.818;4.382;2022-10-16T16:32:32;3.63;;;2.45;;
22567;SDS011;11450;50.818;4.382;2022-10-16T16:35:01;7.10;;;2.92;;
22567;SDS011;11450;50.818;4.382;2022-10-16T16:37:32;3.80;;;2.58;;
22567;SDS011;11450;50.818;4.382;2022-10-16T16:40:01;6.30;;;2.67;;
22567;SDS011;11450;50.818;4.382;2022-10-16T16:42:27;6.40;;;2.88;;
22567;SDS011;11450;50.818;4.382;2022-10-16T16:44:53;4.60;;;2.72;;
22567;SDS011;11450;50.818;4.382;2022-10-16T16:47:19;6.32;;;2.53;;
22567;SDS011;11450;50.818;4.382;2022-10-16T16:49:44;12.82;;;3.67;;
22567;SDS011;11450;50.818;4.382;2022-10-16T16:52:11;6.25;;;5.15;;
22567;SDS011;11450;50.818;4.382;2022-10-16T16:54:38;5.88;;;3.17;;
22567;SDS011;11450;50.818;4.382;2022-10-16T16:57:03;7.75;;;4.35;;
22567;SDS011;11450;50.818;4.382;2022-10-16T16:59:29;7.03;;;4.30;;
22567;SDS011;11450;50.818;4.382;2022-10-16T17:01:57;7.63;;;3.78;;
22567;SDS011;11450;50.818;4.382;2022-10-16T17:04:24;13.65;;;3.90;;
22567;SDS011;11450;50.818;4.382;2022-10-16T17:06:52;28.65;;;6.88;;
22567;SDS011;11450;50.818;4.382;2022-10-16T17:09:20;16.75;;;5.82;;
22567;SDS011;11450;50.818;4.382;2022-10-16T17:11:52;5.80;;;3.05;;
22567;SDS011;11450;50.818;4.382;2022-10-16T17:14:20;8.30;;;4.32;;